createdAt,value
2023-05-10T00:00:55.651Z,3.30
2023-05-10T00:02:57.548Z,2.72
2023-05-10T00:04:59.250Z,1.85
2023-05-10T00:07:00.858Z,3.13
2023-05-10T00:09:02.460Z,3.42
2023-05-10T00:11:04.063Z,3.53
2023-05-10T00:13:05.676Z,5.38
2023-05-10T00:15:08.090Z,5.13
2023-05-10T00:17:09.704Z,6.60
2023-05-10T00:19:11.424Z,9.07
2023-05-10T00:21:13.239Z,12.65
2023-05-10T00:23:14.768Z,13.55
2023-05-10T00:25:16.416Z,10.27
2023-05-10T00:27:18.002Z,8.15
2023-05-10T00:29:20.548Z,10.85
2023-05-10T00:31:22.351Z,14.18
2023-05-10T00:33:24.088Z,12.13
2023-05-10T00:35:25.641Z,10.57
2023-05-10T00:37:27.256Z,8.80
2023-05-10T00:39:29.629Z,9.73
2023-05-10T00:41:33.710Z,7.07
2023-05-10T00:43:35.259Z,7.45
2023-05-10T00:45:38.141Z,6.20
2023-05-10T00:47:40.660Z,4.82
2023-05-10T00:49:42.725Z,7.05
2023-05-10T00:51:45.562Z,5.90
2023-05-10T00:53:47.484Z,4.32
2023-05-10T00:55:52.388Z,3.83
2023-05-10T00:57:54.926Z,5.40
2023-05-10T00:59:56.522Z,3.83
2023-05-10T01:01:59.312Z,4.05
2023-05-10T01:04:01.017Z,5.22
2023-05-10T01:06:02.920Z,3.42
2023-05-10T01:08:04.661Z,3.10
2023-05-10T01:10:10.207Z,4.05
2023-05-10T01:12:12.335Z,3.90
2023-05-10T01:14:14.520Z,3.00
2023-05-10T01:16:16.383Z,5.90
2023-05-10T01:18:21.631Z,4.72
2023-05-10T01:20:24.366Z,3.17
2023-05-10T01:22:32.207Z,3.88
2023-05-10T01:24:36.532Z,4.88
2023-05-10T01:26:44.076Z,4.75
2023-05-10T01:29:04.428Z,4.88
2023-05-10T01:31:31.811Z,4.22
2023-05-10T01:34:12.888Z,5.43
2023-05-10T01:36:20.464Z,6.15
2023-05-10T01:38:35.997Z,6.50
2023-05-10T01:40:43.680Z,7.55
2023-05-10T01:42:53.439Z,6.43
2023-05-10T01:45:01.152Z,7.00
2023-05-10T01:47:07.308Z,6.20
2023-05-10T01:49:19.954Z,6.60
2023-05-10T01:51:26.421Z,6.40
2023-05-10T01:53:28.921Z,6.55
2023-05-10T01:55:35.552Z,6.22
2023-05-10T01:57:40.602Z,6.63
2023-05-10T01:59:46.455Z,6.43
2023-05-10T02:01:49.865Z,6.35
2023-05-10T02:03:52.882Z,6.68
2023-05-10T02:05:56.162Z,6.05
2023-05-10T02:07:59.905Z,6.30
2023-05-10T02:10:02.726Z,6.10
2023-05-10T02:12:07.246Z,5.95
2023-05-10T02:14:11.326Z,6.70
2023-05-10T02:16:14.995Z,7.28
2023-05-10T02:18:17.874Z,8.85
2023-05-10T02:20:20.509Z,7.72
2023-05-10T02:22:23.355Z,7.53
2023-05-10T02:24:26.148Z,7.25
2023-05-10T02:26:28.659Z,7.95
2023-05-10T02:28:32.108Z,6.07
2023-05-10T02:30:35.790Z,7.43
2023-05-10T02:32:38.471Z,6.53
2023-05-10T02:34:41.781Z,6.80
2023-05-10T02:36:44.179Z,6.57
2023-05-10T02:38:47.448Z,6.97
2023-05-10T02:40:49.335Z,5.63
2023-05-10T02:42:53.476Z,5.47
2023-05-10T02:45:02.162Z,5.35
2023-05-10T02:47:04.584Z,5.00
2023-05-10T02:49:06.733Z,3.90
2023-05-10T02:51:09.160Z,3.58
2023-05-10T02:53:15.965Z,3.80
2023-05-10T02:57:27.408Z,2.92
2023-05-10T02:59:29.076Z,5.78
2023-05-10T03:01:30.666Z,3.88
2023-05-10T03:03:32.091Z,2.40
2023-05-10T03:05:34.125Z,3.08
2023-05-10T03:07:36.344Z,3.13
2023-05-10T03:09:37.870Z,3.40
2023-05-10T03:11:57.779Z,2.42
2023-05-10T03:14:31.199Z,2.42
2023-05-10T03:16:47.971Z,1.92
2023-05-10T03:19:01.483Z,1.80
2023-05-10T03:21:07.155Z,2.45
2023-05-10T03:23:20.528Z,2.90
2023-05-10T03:25:23.879Z,2.72
2023-05-10T03:27:28.071Z,2.38
2023-05-10T03:29:31.789Z,2.20
2023-05-10T03:31:33.953Z,2.60
2023-05-10T03:33:35.634Z,4.30
2023-05-10T03:35:37.297Z,2.50
2023-05-10T03:37:39.112Z,4.22
2023-05-10T03:39:40.707Z,3.53
2023-05-10T03:41:42.499Z,1.73
2023-05-10T03:43:44.096Z,2.83
2023-05-10T03:45:45.634Z,3.60
2023-05-10T03:47:47.366Z,6.15
2023-05-10T03:49:48.943Z,2.55
2023-05-10T03:51:50.483Z,3.70
2023-05-10T03:53:52.178Z,4.80
2023-05-10T03:55:53.731Z,3.33
2023-05-10T03:57:55.271Z,2.83
2023-05-10T03:59:56.878Z,4.75
2023-05-10T04:01:58.435Z,6.25
2023-05-10T04:04:00.030Z,5.38
2023-05-10T04:06:08.574Z,6.60
2023-05-10T04:08:10.603Z,7.25
2023-05-10T04:10:12.795Z,8.63
2023-05-10T04:12:14.498Z,8.75
2023-05-10T04:14:16.209Z,11.82
2023-05-10T04:16:17.788Z,9.75
2023-05-10T04:18:19.397Z,12.50
2023-05-10T04:20:21.032Z,10.68
2023-05-10T04:22:22.650Z,10.73
2023-05-10T04:24:24.381Z,12.63
2023-05-10T04:26:26.638Z,11.43
2023-05-10T04:28:28.308Z,12.18
2023-05-10T04:30:30.300Z,10.65
2023-05-10T04:32:32.520Z,11.57
2023-05-10T04:34:35.211Z,12.48
2023-05-10T04:36:37.622Z,11.50
2023-05-10T04:38:39.409Z,10.95
2023-05-10T04:40:41.097Z,11.10
2023-05-10T04:42:42.640Z,12.18
2023-05-10T04:44:44.552Z,11.23
2023-05-10T04:46:47.290Z,13.45
2023-05-10T04:48:48.953Z,12.15
2023-05-10T04:50:50.511Z,14.88
2023-05-10T04:52:53.284Z,12.52
2023-05-10T04:54:54.934Z,12.35
2023-05-10T04:56:56.480Z,14.93
2023-05-10T04:58:57.975Z,12.00
2023-05-10T05:01:06.708Z,11.40
2023-05-10T05:03:08.298Z,12.50
2023-05-10T05:05:09.990Z,11.68
2023-05-10T05:07:11.751Z,11.95
2023-05-10T05:09:13.491Z,13.82
2023-05-10T05:11:15.030Z,12.48
2023-05-10T05:13:16.691Z,11.73
2023-05-10T05:15:18.276Z,15.15
2023-05-10T05:17:19.857Z,13.70
2023-05-10T05:19:21.717Z,13.25
2023-05-10T05:21:23.368Z,15.32
2023-05-10T05:23:25.846Z,14.50
2023-05-10T05:25:27.424Z,14.40
2023-05-10T05:27:29.123Z,15.35
2023-05-10T05:29:30.746Z,17.98
2023-05-10T05:31:32.377Z,14.48
2023-05-10T05:33:34.786Z,17.52
2023-05-10T05:35:36.331Z,16.63
2023-05-10T05:37:38.207Z,18.58
2023-05-10T05:39:39.735Z,21.75
2023-05-10T05:41:41.319Z,16.65
2023-05-10T05:43:42.812Z,19.88
2023-05-10T05:45:44.456Z,20.83
2023-05-10T05:47:46.214Z,20.05
2023-05-10T05:49:48.160Z,20.00
2023-05-10T05:51:51.279Z,22.02
2023-05-10T05:53:52.833Z,23.48
2023-05-10T05:55:58.936Z,23.90
2023-05-10T05:58:00.481Z,20.98
2023-05-10T06:00:02.358Z,25.17
2023-05-10T06:02:03.939Z,25.33
2023-05-10T06:04:05.570Z,24.10
2023-05-10T06:06:07.354Z,27.13
2023-05-10T06:08:08.968Z,31.63
2023-05-10T06:10:11.108Z,25.08
2023-05-10T06:12:12.909Z,26.75
2023-05-10T06:14:14.450Z,32.72
2023-05-10T06:16:15.981Z,28.00
2023-05-10T06:18:17.592Z,28.50
2023-05-10T06:20:19.357Z,30.92
2023-05-10T06:22:21.066Z,30.45
2023-05-10T06:24:22.820Z,29.45
2023-05-10T06:26:24.522Z,27.50
2023-05-10T06:28:26.079Z,34.97
2023-05-10T06:30:30.659Z,28.20
2023-05-10T06:32:32.270Z,29.08
2023-05-10T06:34:33.997Z,30.40
2023-05-10T06:36:35.525Z,28.15
2023-05-10T06:38:37.202Z,33.90
2023-05-10T06:40:42.641Z,34.25
2023-05-10T06:42:46.004Z,34.42
2023-05-10T06:44:47.626Z,31.58
2023-05-10T06:46:49.356Z,32.10
2023-05-10T06:48:50.956Z,32.63
2023-05-10T06:50:52.579Z,36.08
2023-05-10T06:52:54.253Z,33.50
2023-05-10T06:54:55.762Z,34.05
2023-05-10T06:56:57.373Z,29.73
2023-05-10T06:58:59.001Z,35.78
2023-05-10T07:01:06.927Z,32.05
2023-05-10T07:03:08.598Z,31.10
2023-05-10T07:05:10.195Z,31.92
2023-05-10T07:07:11.991Z,33.22
2023-05-10T07:09:14.462Z,34.65
2023-05-10T07:11:16.025Z,34.03
2023-05-10T07:13:17.709Z,32.05
2023-05-10T07:15:19.770Z,35.42
2023-05-10T07:17:21.416Z,34.15
2023-05-10T07:19:23.089Z,34.88
2023-05-10T07:21:29.668Z,38.30
2023-05-10T07:23:31.464Z,33.72
2023-05-10T07:25:32.969Z,36.60
2023-05-10T07:27:34.709Z,32.58
2023-05-10T07:29:37.164Z,32.85
2023-05-10T07:31:38.884Z,33.45
2023-05-10T07:33:40.937Z,39.33
2023-05-10T07:35:43.367Z,33.40
2023-05-10T07:37:44.869Z,35.22
2023-05-10T07:39:46.408Z,30.88
2023-05-10T07:41:47.994Z,39.60
2023-05-10T07:43:49.574Z,31.33
2023-05-10T07:45:51.620Z,32.17
2023-05-10T07:47:54.309Z,28.27
2023-05-10T07:49:56.306Z,27.73
2023-05-10T07:51:57.877Z,28.38
2023-05-10T07:53:59.604Z,26.55
2023-05-10T07:56:33.664Z,26.92
2023-05-10T07:58:35.310Z,26.45
2023-05-10T08:00:40.257Z,28.85
2023-05-10T08:02:42.157Z,22.88
2023-05-10T08:04:43.926Z,24.92
2023-05-10T08:06:45.727Z,23.05
2023-05-10T08:08:50.488Z,28.13
2023-05-10T08:10:52.084Z,23.98
2023-05-10T08:12:53.672Z,22.23
2023-05-10T08:14:55.256Z,22.42
2023-05-10T08:16:57.237Z,26.40
2023-05-10T08:18:58.955Z,22.42
2023-05-10T08:21:00.664Z,26.98
2023-05-10T08:23:02.247Z,24.10
2023-05-10T08:25:03.977Z,22.65
2023-05-10T08:27:09.129Z,22.70
2023-05-10T08:29:10.729Z,22.60
2023-05-10T08:31:12.928Z,23.38
2023-05-10T08:33:14.581Z,22.95
2023-05-10T08:35:17.128Z,18.15
2023-05-10T08:37:18.833Z,19.27
2023-05-10T08:39:29.921Z,15.95
2023-05-10T08:41:37.287Z,16.40
2023-05-10T08:43:40.053Z,16.40
2023-05-10T08:45:48.396Z,13.55
2023-05-10T08:47:50.994Z,12.27
2023-05-10T08:49:53.589Z,13.82
2023-05-10T08:51:57.143Z,11.85
2023-05-10T08:53:59.043Z,15.52
2023-05-10T08:56:02.032Z,12.43
2023-05-10T08:58:04.851Z,14.35
2023-05-10T09:00:07.484Z,16.05
2023-05-10T09:02:12.399Z,13.20
2023-05-10T09:04:14.202Z,13.00
2023-05-10T09:06:16.721Z,16.35
2023-05-10T09:08:18.700Z,14.68
2023-05-10T09:10:21.232Z,11.05
2023-05-10T09:12:23.760Z,14.20
2023-05-10T09:14:26.251Z,17.27
2023-05-10T09:16:27.899Z,14.55
2023-05-10T09:18:29.755Z,11.88
2023-05-10T09:20:32.087Z,12.65
2023-05-10T09:22:36.842Z,11.77
2023-05-10T09:24:43.392Z,13.75
2023-05-10T09:26:52.360Z,12.90
2023-05-10T09:28:58.937Z,13.35
2023-05-10T09:31:00.575Z,12.65
2023-05-10T09:33:02.417Z,15.80
2023-05-10T09:35:31.230Z,17.90
2023-05-10T09:37:32.857Z,16.13
2023-05-10T09:39:36.318Z,16.20
2023-05-10T09:41:37.873Z,16.25
2023-05-10T09:43:39.443Z,20.30
2023-05-10T09:45:42.327Z,16.27
2023-05-10T09:47:43.990Z,17.17
2023-05-10T09:49:51.112Z,15.40
2023-05-10T09:52:08.924Z,16.42
2023-05-10T09:54:16.017Z,15.88
2023-05-10T09:56:38.571Z,14.15
2023-05-10T09:58:40.645Z,15.45
2023-05-10T10:00:46.299Z,13.35
2023-05-10T10:02:55.247Z,15.77
2023-05-10T10:05:00.635Z,13.45
2023-05-10T10:07:06.193Z,12.55
2023-05-10T10:09:08.436Z,12.18
2023-05-10T10:11:10.016Z,12.23
2023-05-10T10:13:11.608Z,10.85
2023-05-10T10:15:15.262Z,11.52
2023-05-10T10:17:18.746Z,9.60
2023-05-10T10:19:24.180Z,7.70
2023-05-10T10:21:26.042Z,8.10
2023-05-10T10:23:28.428Z,7.55
2023-05-10T10:25:30.254Z,8.35
2023-05-10T10:27:52.836Z,7.53
2023-05-10T10:30:14.467Z,6.70
2023-05-10T10:32:37.633Z,6.72
2023-05-10T10:34:40.746Z,7.78
2023-05-10T10:36:45.880Z,8.00
2023-05-10T10:38:47.364Z,9.25
2023-05-10T10:40:49.086Z,8.48
2023-05-10T10:42:54.663Z,9.52
2023-05-10T10:45:13.298Z,8.55
2023-05-10T10:47:25.492Z,8.88
2023-05-10T10:49:28.004Z,7.68
2023-05-10T10:51:30.511Z,7.65
2023-05-10T10:53:33.085Z,9.43
2023-05-10T10:55:34.796Z,8.80
2023-05-10T10:57:42.470Z,11.13
2023-05-10T10:59:47.814Z,9.07
2023-05-10T11:01:52.980Z,11.57
2023-05-10T11:04:03.714Z,11.93
2023-05-10T11:06:05.436Z,10.30
2023-05-10T11:08:17.521Z,11.73
2023-05-10T11:10:25.236Z,10.63
2023-05-10T11:12:26.786Z,17.48
2023-05-10T11:14:28.454Z,12.82
2023-05-10T11:16:42.708Z,14.98
2023-05-10T11:19:08.676Z,15.95
2023-05-10T11:21:11.698Z,18.58
2023-05-10T11:23:16.816Z,18.98
2023-05-10T11:25:18.756Z,22.55
2023-05-10T11:27:21.438Z,20.90
2023-05-10T11:29:23.395Z,18.25
2023-05-10T11:31:27.612Z,20.92
2023-05-10T11:33:29.372Z,17.65
2023-05-10T11:35:30.928Z,16.95
2023-05-10T11:37:35.159Z,17.02
2023-05-10T11:39:36.768Z,18.02
2023-05-10T11:41:38.328Z,16.83
2023-05-10T11:43:40.918Z,16.33
2023-05-10T11:45:42.495Z,14.73
2023-05-10T11:47:44.623Z,15.63
2023-05-10T11:49:47.069Z,15.43
2023-05-10T11:51:48.706Z,14.98
2023-05-10T11:53:52.270Z,11.82
2023-05-10T11:55:54.106Z,10.75
2023-05-10T11:57:55.985Z,11.88
2023-05-10T11:59:58.433Z,9.70
2023-05-10T12:02:00.387Z,11.25
2023-05-10T12:04:02.363Z,10.20
2023-05-10T12:06:04.516Z,8.88
2023-05-10T12:08:16.411Z,13.38
2023-05-10T12:10:26.552Z,13.88
2023-05-10T12:12:28.036Z,13.52
2023-05-10T12:14:34.248Z,13.93
2023-05-10T12:16:36.896Z,17.10
2023-05-10T12:18:41.287Z,13.35
2023-05-10T12:20:43.469Z,14.30
2023-05-10T12:22:52.434Z,14.95
2023-05-10T12:24:53.994Z,17.70
2023-05-10T12:26:55.627Z,14.80
2023-05-10T12:29:13.833Z,14.10
2023-05-10T12:31:15.471Z,14.55
2023-05-10T12:33:18.997Z,13.32
2023-05-10T12:35:23.007Z,11.98
2023-05-10T12:37:28.548Z,15.77
2023-05-10T12:39:44.241Z,12.13
2023-05-10T12:41:45.762Z,16.67
2023-05-10T12:43:47.451Z,14.10
2023-05-10T12:45:49.840Z,15.88
2023-05-10T12:49:53.063Z,14.00
2023-05-10T12:51:54.590Z,14.55
2023-05-10T12:53:56.515Z,13.32
2023-05-10T12:55:58.434Z,12.77
2023-05-10T12:57:59.960Z,11.82
2023-05-10T13:00:01.515Z,11.25
2023-05-10T13:02:03.065Z,9.45
2023-05-10T13:04:04.617Z,13.68
2023-05-10T13:06:07.313Z,11.98
2023-05-10T13:08:08.854Z,11.63
2023-05-10T13:10:11.425Z,9.82
2023-05-10T13:12:12.979Z,12.50
2023-05-10T13:14:15.365Z,10.88
2023-05-10T13:16:16.913Z,11.95
2023-05-10T13:18:18.594Z,12.27
2023-05-10T13:20:20.514Z,13.88
2023-05-10T13:22:32.496Z,12.73
2023-05-10T13:24:41.100Z,11.43
2023-05-10T13:26:42.632Z,14.45
2023-05-10T13:28:44.700Z,13.07
2023-05-10T13:30:46.799Z,13.55
2023-05-10T13:32:48.399Z,12.23
2023-05-10T13:34:49.904Z,12.23
2023-05-10T13:36:51.667Z,13.05
2023-05-10T13:38:53.193Z,12.80
2023-05-10T13:40:54.738Z,10.98
2023-05-10T13:42:56.245Z,8.63
2023-05-10T13:44:57.992Z,10.40
2023-05-10T13:46:59.571Z,10.93
2023-05-10T13:49:01.086Z,10.32
2023-05-10T13:51:02.561Z,9.40
2023-05-10T13:53:04.101Z,10.45
2023-05-10T13:55:05.919Z,10.93
2023-05-10T13:57:07.741Z,11.43
2023-05-10T13:59:09.335Z,9.23
2023-05-10T14:01:11.072Z,11.63
2023-05-10T14:03:12.777Z,12.80
2023-05-10T14:05:14.476Z,11.25
2023-05-10T14:07:16.004Z,10.68
2023-05-10T14:09:17.642Z,10.10
2023-05-10T14:11:19.204Z,9.65
2023-05-10T14:13:20.748Z,10.57
2023-05-10T14:15:22.463Z,10.27
2023-05-10T14:17:24.095Z,10.30
2023-05-10T14:19:25.897Z,12.25
2023-05-10T14:21:27.633Z,11.80
2023-05-10T14:23:29.868Z,9.77
2023-05-10T14:25:31.611Z,11.57
2023-05-10T14:27:33.357Z,9.65
2023-05-10T14:29:34.929Z,11.85
2023-05-10T14:31:36.794Z,11.55
2023-05-10T14:33:38.375Z,12.63
2023-05-10T14:35:40.238Z,13.23
2023-05-10T14:37:41.825Z,10.57
2023-05-10T14:39:43.784Z,9.90
2023-05-10T14:41:46.749Z,10.63
2023-05-10T14:43:48.345Z,9.02
2023-05-10T14:45:49.945Z,8.05
2023-05-10T14:47:51.586Z,10.15
2023-05-10T14:49:53.149Z,7.72
2023-05-10T14:51:54.698Z,7.47
2023-05-10T14:53:56.327Z,7.22
2023-05-10T14:56:00.494Z,8.52
2023-05-10T14:58:03.832Z,7.72
2023-05-10T15:00:06.180Z,6.95
2023-05-10T15:02:09.402Z,7.05
2023-05-10T15:04:11.349Z,7.30
2023-05-10T15:06:16.006Z,6.95
2023-05-10T15:08:17.536Z,5.30
2023-05-10T15:10:19.398Z,5.68
2023-05-10T15:12:21.396Z,6.25
2023-05-10T15:14:23.677Z,6.53
2023-05-10T15:16:25.815Z,6.80
2023-05-10T15:18:27.432Z,6.18
2023-05-10T15:20:29.126Z,5.15
2023-05-10T15:22:34.322Z,4.47
2023-05-10T15:24:36.157Z,5.88
2023-05-10T15:26:37.737Z,4.70
2023-05-10T15:28:39.262Z,4.20
2023-05-10T15:30:40.764Z,5.90
2023-05-10T15:32:42.341Z,4.05
2023-05-10T15:34:43.930Z,3.78
2023-05-10T15:36:46.010Z,4.43
2023-05-10T15:38:47.586Z,3.83
2023-05-10T15:40:49.137Z,4.13
2023-05-10T15:42:50.683Z,3.75
2023-05-10T15:44:52.272Z,4.70
2023-05-10T15:46:53.824Z,3.80
2023-05-10T15:48:55.699Z,3.78
2023-05-10T15:50:57.238Z,5.80
2023-05-10T15:52:58.771Z,4.28
2023-05-10T15:55:00.355Z,4.80
2023-05-10T15:57:01.958Z,4.70
2023-05-10T15:59:03.906Z,4.65
2023-05-10T16:01:08.787Z,3.95
2023-05-10T16:03:10.430Z,4.93
2023-05-10T16:05:12.128Z,4.22
2023-05-10T16:07:13.670Z,6.82
2023-05-10T16:09:15.675Z,5.32
2023-05-10T16:11:17.308Z,4.93
2023-05-10T16:13:18.960Z,4.88
2023-05-10T16:15:21.878Z,5.65
2023-05-10T16:17:23.559Z,4.90
2023-05-10T16:19:25.937Z,6.15
2023-05-10T16:21:32.283Z,6.32
2023-05-10T16:23:33.870Z,6.53
2023-05-10T16:25:35.714Z,4.47
2023-05-10T16:27:37.326Z,5.13
2023-05-10T16:29:38.960Z,5.00
2023-05-10T16:31:40.495Z,5.72
2023-05-10T16:33:42.079Z,5.68
2023-05-10T16:35:43.951Z,4.78
2023-05-10T16:37:45.499Z,5.53
2023-05-10T16:39:47.114Z,5.53
2023-05-10T16:41:48.663Z,6.75
2023-05-10T16:43:50.538Z,6.47
2023-05-10T16:45:52.292Z,5.25
2023-05-10T16:47:53.924Z,4.90
2023-05-10T16:49:55.471Z,5.55
2023-05-10T16:51:57.003Z,5.88
2023-05-10T16:53:58.905Z,5.88
2023-05-10T16:56:00.827Z,5.82
2023-05-10T16:58:02.992Z,5.90
2023-05-10T17:00:05.307Z,6.78
2023-05-10T17:02:07.035Z,5.88
2023-05-10T17:04:08.704Z,6.50
2023-05-10T17:06:12.063Z,6.72
2023-05-10T17:08:13.608Z,5.13
2023-05-10T17:10:15.336Z,7.65
2023-05-10T17:12:17.167Z,11.05
2023-05-10T17:14:18.713Z,6.35
2023-05-10T17:16:21.333Z,7.93
2023-05-10T17:18:23.075Z,7.10
2023-05-10T17:20:24.605Z,5.95
2023-05-10T17:22:26.132Z,5.88
2023-05-10T17:24:29.726Z,6.72
2023-05-10T17:26:31.392Z,8.30
2023-05-10T17:28:32.893Z,6.85
2023-05-10T17:30:34.448Z,8.93
2023-05-10T17:32:36.054Z,7.65
2023-05-10T17:34:38.863Z,8.23
2023-05-10T17:36:41.578Z,7.22
2023-05-10T17:38:43.495Z,10.00
2023-05-10T17:40:45.027Z,8.32
2023-05-10T17:42:46.568Z,8.50
2023-05-10T17:44:48.176Z,8.55
2023-05-10T17:46:49.713Z,7.70
2023-05-10T17:48:51.315Z,7.78
2023-05-10T17:50:52.929Z,9.65
2023-05-10T17:52:54.474Z,8.15
2023-05-10T17:54:56.015Z,9.98
2023-05-10T17:56:58.173Z,10.32
2023-05-10T17:58:59.715Z,10.13
2023-05-10T18:01:01.314Z,11.90
2023-05-10T18:03:03.727Z,11.73
2023-05-10T18:05:05.820Z,12.57
2023-05-10T18:07:07.908Z,12.60
2023-05-10T18:09:09.621Z,11.45
2023-05-10T18:11:11.144Z,12.43
2023-05-10T18:13:12.698Z,12.55
2023-05-10T18:15:14.281Z,12.35
2023-05-10T18:17:15.930Z,13.10
2023-05-10T18:19:17.512Z,12.75
2023-05-10T18:21:19.171Z,13.55
2023-05-10T18:23:20.974Z,12.98
2023-05-10T18:25:22.542Z,14.52
2023-05-10T18:27:24.371Z,16.38
2023-05-10T18:29:26.300Z,13.50
2023-05-10T18:31:27.963Z,11.57
2023-05-10T18:33:29.555Z,12.23
2023-05-10T18:35:31.278Z,12.85
2023-05-10T18:37:33.334Z,12.30
2023-05-10T18:39:35.952Z,14.40
2023-05-10T18:41:37.667Z,12.70
2023-05-10T18:43:39.236Z,12.27
2023-05-10T18:45:40.779Z,14.15
2023-05-10T18:47:42.872Z,14.25
2023-05-10T18:49:46.204Z,10.40
2023-05-10T18:51:47.753Z,10.27
2023-05-10T18:53:49.465Z,14.68
2023-05-10T18:55:58.586Z,13.80
2023-05-10T18:58:00.415Z,12.23
2023-05-10T19:00:02.022Z,13.15
2023-05-10T19:02:04.639Z,16.13
2023-05-10T19:04:06.231Z,13.65
2023-05-10T19:06:07.896Z,14.10
2023-05-10T19:08:09.519Z,19.40
2023-05-10T19:10:13.065Z,16.50
2023-05-10T19:12:14.563Z,18.38
2023-05-10T19:14:16.309Z,17.85
2023-05-10T19:16:23.385Z,18.45
2023-05-10T19:18:26.341Z,17.98
2023-05-10T19:24:35.138Z,16.75
2023-05-10T19:26:36.894Z,18.02
2023-05-10T19:28:38.478Z,18.40
2023-05-10T19:30:40.049Z,24.15
2023-05-10T19:32:44.090Z,19.10
2023-05-10T19:34:45.764Z,21.42
2023-05-10T19:36:47.389Z,20.27
2023-05-10T19:38:49.074Z,23.48
2023-05-10T19:40:57.408Z,22.50
2023-05-10T19:43:00.345Z,20.88
2023-05-10T19:45:01.921Z,20.77
2023-05-10T19:47:05.165Z,18.98
2023-05-10T19:49:06.822Z,22.40
2023-05-10T19:51:10.268Z,21.13
2023-05-10T19:53:12.088Z,22.52
2023-05-10T19:55:25.142Z,24.33
2023-05-10T19:57:27.528Z,23.48
2023-05-10T19:59:29.128Z,22.48
2023-05-10T20:01:32.718Z,22.38
2023-05-10T20:03:35.346Z,22.73
2023-05-10T20:05:36.950Z,21.73
2023-05-10T20:07:38.484Z,19.48
2023-05-10T20:09:40.106Z,20.60
2023-05-10T20:11:41.665Z,23.58
2023-05-10T20:13:43.184Z,21.40
2023-05-10T20:15:45.650Z,22.70
2023-05-10T20:17:48.544Z,22.05
2023-05-10T20:19:50.290Z,22.02
2023-05-10T20:21:51.925Z,20.65
2023-05-10T20:23:53.547Z,23.65
2023-05-10T20:25:55.223Z,22.40
2023-05-10T20:27:56.852Z,21.02
2023-05-10T20:29:58.507Z,22.50
2023-05-10T20:32:00.303Z,20.42
2023-05-10T20:34:01.856Z,20.05
2023-05-10T20:36:03.845Z,18.67
2023-05-10T20:38:05.680Z,19.60
2023-05-10T20:40:07.972Z,20.63
2023-05-10T20:42:09.622Z,19.05
2023-05-10T20:44:11.191Z,18.50
2023-05-10T20:46:12.802Z,19.00
2023-05-10T20:48:14.500Z,19.10
2023-05-10T20:50:17.138Z,21.90
2023-05-10T20:52:18.959Z,20.38
2023-05-10T20:54:22.067Z,20.42
2023-05-10T20:56:24.056Z,19.02
2023-05-10T20:58:26.881Z,17.92
2023-05-10T21:00:28.451Z,19.48
2023-05-10T21:02:30.095Z,20.52
2023-05-10T21:04:32.031Z,20.80
2023-05-10T21:06:33.623Z,22.20
2023-05-10T21:08:35.176Z,23.38
2023-05-10T21:10:36.818Z,18.13
2023-05-10T21:12:38.443Z,20.35
2023-05-10T21:14:40.112Z,21.77
2023-05-10T21:16:41.830Z,22.13
2023-05-10T21:18:43.448Z,19.70
2023-05-10T21:20:45.001Z,21.77
2023-05-10T21:22:46.570Z,19.48
2023-05-10T21:24:48.200Z,16.08
2023-05-10T21:26:49.688Z,17.42
2023-05-10T21:28:51.511Z,16.83
2023-05-10T21:30:53.060Z,15.75
2023-05-10T21:32:59.505Z,18.17
2023-05-10T21:35:01.245Z,17.38
2023-05-10T21:37:02.783Z,19.15
2023-05-10T21:39:04.337Z,15.88
2023-05-10T21:41:08.758Z,18.33
2023-05-10T21:43:11.251Z,20.48
2023-05-10T21:45:12.987Z,16.92
2023-05-10T21:47:14.514Z,18.20
2023-05-10T21:49:16.043Z,17.75
2023-05-10T21:51:17.661Z,18.42
2023-05-10T21:53:19.709Z,18.30
2023-05-10T21:55:21.322Z,15.60
2023-05-10T21:57:22.926Z,18.25
2023-05-10T21:59:24.620Z,16.85
2023-05-10T22:01:26.238Z,17.10
2023-05-10T22:03:28.004Z,21.23
2023-05-10T22:05:29.853Z,17.02
2023-05-10T22:07:32.320Z,18.05
2023-05-10T22:09:33.837Z,17.38
2023-05-10T22:11:35.426Z,15.25
2023-05-10T22:13:36.921Z,18.02
2023-05-10T22:15:38.466Z,16.38
2023-05-10T22:17:40.588Z,19.40
2023-05-10T22:19:42.392Z,17.98
2023-05-10T22:21:44.007Z,18.75
2023-05-10T22:23:45.543Z,17.38
2023-05-10T22:25:47.049Z,20.08
2023-05-10T22:27:48.800Z,20.30
2023-05-10T22:29:50.306Z,18.02
2023-05-10T22:31:51.886Z,19.20
2023-05-10T22:33:53.379Z,16.05
2023-05-10T22:35:54.969Z,16.60
2023-05-10T22:37:56.582Z,18.63
2023-05-10T22:39:58.093Z,18.20
2023-05-10T22:41:59.669Z,20.58
2023-05-10T22:46:29.298Z,19.50
2023-05-10T22:48:34.100Z,17.48
2023-05-10T22:50:37.132Z,20.85
2023-05-10T22:52:39.420Z,18.40
2023-05-10T22:54:40.945Z,19.13
2023-05-10T22:56:42.659Z,17.60
2023-05-10T22:58:44.276Z,22.95
2023-05-10T23:00:45.806Z,19.83
2023-05-10T23:02:47.422Z,19.65
2023-05-10T23:04:49.261Z,19.55
2023-05-10T23:06:50.844Z,19.63
2023-05-10T23:08:52.410Z,22.52
2023-05-10T23:10:53.966Z,18.40
2023-05-10T23:12:56.120Z,18.33
2023-05-10T23:14:57.653Z,21.73
2023-05-10T23:16:59.206Z,19.75
2023-05-10T23:19:00.762Z,19.70
2023-05-10T23:21:02.412Z,19.10
2023-05-10T23:23:03.993Z,19.00
2023-05-10T23:25:06.014Z,20.42
2023-05-10T23:27:07.656Z,24.33
2023-05-10T23:29:09.214Z,21.65
2023-05-10T23:31:11.097Z,22.13
2023-05-10T23:33:14.255Z,21.63
2023-05-10T23:35:16.005Z,19.27
2023-05-10T23:37:17.552Z,22.20
2023-05-10T23:39:19.090Z,20.25
2023-05-10T23:41:20.647Z,23.95
2023-05-10T23:43:22.318Z,22.83
2023-05-10T23:45:23.861Z,21.48
2023-05-10T23:47:25.604Z,22.83
2023-05-10T23:49:27.358Z,21.65
2023-05-10T23:51:28.888Z,24.17
2023-05-10T23:53:30.612Z,22.35
2023-05-10T23:55:32.103Z,26.75
2023-05-10T23:57:33.672Z,23.25
2023-05-10T23:59:35.194Z,23.80
